createdAt,value
2022-08-25T00:01:52.591Z,18.63
2022-08-25T00:04:19.521Z,18.62
2022-08-25T00:06:56.493Z,18.59
2022-08-25T00:09:27.637Z,18.56
2022-08-25T00:12:00.585Z,18.55
2022-08-25T00:14:30.192Z,18.53
2022-08-25T00:17:03.579Z,18.49
2022-08-25T00:19:32.200Z,18.49
2022-08-25T00:22:05.591Z,18.48
2022-08-25T00:24:32.214Z,18.51
2022-08-25T00:27:05.595Z,18.51
2022-08-25T00:29:39.575Z,18.42
2022-08-25T00:32:19.814Z,18.43
2022-08-25T00:34:46.576Z,18.43
2022-08-25T00:37:19.586Z,18.49
2022-08-25T00:39:46.603Z,18.41
2022-08-25T00:42:20.571Z,18.37
2022-08-25T00:44:47.735Z,18.46
2022-08-25T00:47:20.586Z,18.39
2022-08-25T00:49:59.762Z,18.41
2022-08-25T00:52:38.578Z,18.57
2022-08-25T00:55:08.242Z,18.54
2022-08-25T00:57:46.570Z,18.46
2022-08-25T01:00:19.668Z,18.49
2022-08-25T01:02:52.679Z,18.42
2022-08-25T01:05:26.573Z,18.37
2022-08-25T01:07:53.159Z,18.34
2022-08-25T01:10:32.587Z,18.32
2022-08-25T01:13:16.541Z,18.30
2022-08-25T01:15:44.340Z,18.29
2022-08-25T01:18:18.583Z,18.30
2022-08-25T01:20:48.925Z,18.29
2022-08-25T01:23:21.576Z,18.30
2022-08-25T01:25:48.088Z,18.32
2022-08-25T01:28:21.574Z,18.31
2022-08-25T01:31:01.634Z,18.31
2022-08-25T01:33:35.281Z,18.29
2022-08-25T01:36:09.579Z,18.33
2022-08-25T01:38:36.316Z,18.38
2022-08-25T01:41:09.563Z,18.37
2022-08-25T01:43:37.569Z,18.38
2022-08-25T01:46:04.465Z,18.45
2022-08-25T01:48:39.571Z,18.47
2022-08-25T01:51:06.263Z,18.46
2022-08-25T01:53:33.478Z,18.43
2022-08-25T01:56:11.598Z,18.47
2022-08-25T01:58:39.913Z,18.49
2022-08-25T02:01:14.592Z,18.52
2022-08-25T02:03:42.533Z,18.52
2022-08-25T02:06:17.578Z,18.47
2022-08-25T02:08:44.542Z,18.44
2022-08-25T02:11:12.901Z,18.48
2022-08-25T02:13:46.537Z,18.51
2022-08-25T02:16:29.691Z,18.49
2022-08-25T02:19:10.554Z,18.43
2022-08-25T02:21:37.119Z,18.32
2022-08-25T02:24:10.568Z,18.29
2022-08-25T02:26:37.575Z,18.29
2022-08-25T02:29:11.580Z,18.38
2022-08-25T02:31:45.662Z,18.30
2022-08-25T02:34:18.568Z,18.23
2022-08-25T02:36:51.574Z,18.19
2022-08-25T02:39:18.073Z,18.19
2022-08-25T02:41:51.578Z,18.18
2022-08-25T02:44:18.143Z,18.14
2022-08-25T02:46:51.572Z,18.15
2022-08-25T02:49:25.564Z,18.13
2022-08-25T02:51:52.298Z,18.05
2022-08-25T02:54:25.578Z,18.01
2022-08-25T02:56:52.229Z,18.03
2022-08-25T02:59:25.582Z,18.02
2022-08-25T03:01:58.561Z,18.00
2022-08-25T03:04:25.256Z,17.98
2022-08-25T03:06:58.560Z,17.99
2022-08-25T03:09:26.447Z,17.96
2022-08-25T03:11:59.558Z,17.93
2022-08-25T03:14:33.566Z,17.90
2022-08-25T03:17:00.430Z,17.86
2022-08-25T03:19:33.556Z,17.88
2022-08-25T03:22:00.117Z,17.89
2022-08-25T03:24:33.561Z,17.84
2022-08-25T03:27:00.241Z,17.85
2022-08-25T03:29:34.564Z,17.85
2022-08-25T03:32:14.525Z,17.85
2022-08-25T03:34:41.050Z,17.87
2022-08-25T03:37:14.537Z,17.94
2022-08-25T03:39:41.112Z,18.07
2022-08-25T03:42:14.564Z,18.06
2022-08-25T03:44:41.138Z,18.02
2022-08-25T03:47:14.562Z,18.02
2022-08-25T03:49:41.222Z,18.01
2022-08-25T03:52:14.653Z,18.00
2022-08-25T03:54:41.609Z,18.03
2022-08-25T03:57:16.536Z,17.99
2022-08-25T03:59:49.555Z,18.01
2022-08-25T04:02:22.640Z,18.04
2022-08-25T04:04:50.301Z,17.96
2022-08-25T04:07:23.538Z,17.86
2022-08-25T04:09:56.653Z,17.85
2022-08-25T04:12:23.431Z,17.89
2022-08-25T04:14:50.094Z,17.95
2022-08-25T04:17:23.520Z,18.05
2022-08-25T04:19:50.736Z,18.03
2022-08-25T04:22:24.641Z,18.05
2022-08-25T04:24:51.223Z,18.04
2022-08-25T04:27:17.735Z,18.06
2022-08-25T04:29:50.538Z,18.22
2022-08-25T04:32:23.667Z,18.33
2022-08-25T04:34:56.539Z,18.27
2022-08-25T04:37:23.162Z,18.22
2022-08-25T04:39:56.619Z,18.18
2022-08-25T04:42:29.533Z,18.20
2022-08-25T04:44:56.089Z,18.19
2022-08-25T04:47:29.556Z,18.11
2022-08-25T04:50:02.512Z,18.04
2022-08-25T04:52:29.259Z,18.02
2022-08-25T04:55:03.541Z,18.06
2022-08-25T04:57:36.544Z,18.07
2022-08-25T05:00:04.684Z,18.15
2022-08-25T05:02:37.528Z,18.37
2022-08-25T05:05:10.582Z,18.29
2022-08-25T05:07:37.224Z,18.24
2022-08-25T05:10:10.561Z,18.21
2022-08-25T05:12:43.537Z,18.22
2022-08-25T05:15:29.463Z,18.15
2022-08-25T05:18:03.539Z,18.26
2022-08-25T05:20:31.197Z,18.33
2022-08-25T05:23:04.547Z,18.38
2022-08-25T05:25:32.702Z,18.34
2022-08-25T05:28:05.692Z,18.33
2022-08-25T05:30:38.546Z,18.30
2022-08-25T05:33:13.401Z,18.29
2022-08-25T05:35:46.522Z,18.33
2022-08-25T05:38:19.747Z,18.38
2022-08-25T05:40:52.530Z,18.47
2022-08-25T05:43:19.080Z,18.54
2022-08-25T05:45:53.593Z,18.52
2022-08-25T05:48:20.136Z,18.52
2022-08-25T05:51:00.559Z,18.50
2022-08-25T05:53:28.440Z,18.59
2022-08-25T05:56:04.547Z,18.54
2022-08-25T05:58:38.540Z,18.50
2022-08-25T06:01:30.573Z,18.51
2022-08-25T06:03:57.189Z,18.54
2022-08-25T06:06:24.508Z,18.54
2022-08-25T06:08:58.553Z,18.49
2022-08-25T06:15:04.601Z,18.42
2022-08-25T06:17:37.536Z,18.47
2022-08-25T06:20:05.767Z,18.41
2022-08-25T06:22:40.558Z,18.55
2022-08-25T06:25:14.615Z,18.64
2022-08-25T06:27:41.145Z,18.62
2022-08-25T06:30:24.536Z,18.57
2022-08-25T06:33:08.528Z,18.62
2022-08-25T06:35:41.535Z,18.74
2022-08-25T06:38:08.108Z,18.87
2022-08-25T06:40:41.680Z,18.86
2022-08-25T06:43:08.981Z,18.94
2022-08-25T06:45:35.589Z,18.96
2022-08-25T06:48:08.545Z,18.97
2022-08-25T06:50:35.128Z,19.16
2022-08-25T06:53:08.525Z,19.28
2022-08-25T06:55:35.457Z,19.23
2022-08-25T06:58:10.529Z,19.21
2022-08-25T07:00:37.979Z,19.15
2022-08-25T07:03:11.563Z,19.22
2022-08-25T07:05:44.521Z,19.22
2022-08-25T07:08:18.540Z,19.22
2022-08-25T07:10:48.140Z,19.25
2022-08-25T07:13:21.542Z,19.28
2022-08-25T07:16:00.718Z,19.31
2022-08-25T07:18:27.496Z,19.37
2022-08-25T07:21:01.607Z,19.42
2022-08-25T07:23:28.271Z,19.49
2022-08-25T07:26:11.815Z,19.53
2022-08-25T07:28:55.580Z,19.58
2022-08-25T07:31:42.585Z,19.70
2022-08-25T07:34:34.674Z,19.73
2022-08-25T07:37:10.539Z,19.88
2022-08-25T07:39:43.543Z,19.95
2022-08-25T07:42:19.780Z,20.00
2022-08-25T07:44:47.426Z,20.04
2022-08-25T07:47:23.088Z,20.01
2022-08-25T07:49:56.540Z,20.06
2022-08-25T07:52:23.215Z,20.05
2022-08-25T07:54:56.625Z,20.05
2022-08-25T07:57:26.321Z,20.09
2022-08-25T07:59:59.538Z,20.12
2022-08-25T08:02:26.619Z,20.15
2022-08-25T08:05:00.503Z,20.20
2022-08-25T08:07:43.427Z,20.26
2022-08-25T08:10:53.801Z,20.33
2022-08-25T08:13:07.350Z,20.45
2022-08-25T08:15:41.620Z,20.47
2022-08-25T08:18:11.859Z,20.59
2022-08-25T08:20:45.606Z,20.66
2022-08-25T08:23:12.317Z,20.77
2022-08-25T08:25:45.641Z,20.72
2022-08-25T08:28:12.575Z,20.75
2022-08-25T08:30:53.593Z,20.86
2022-08-25T08:33:33.629Z,20.91
2022-08-25T08:36:15.564Z,20.89
2022-08-25T08:38:50.680Z,20.88
2022-08-25T08:42:11.106Z,20.97
2022-08-25T08:44:45.688Z,21.03
2022-08-25T08:47:28.706Z,21.12
2022-08-25T08:50:06.878Z,21.20
2022-08-25T08:52:58.665Z,21.29
2022-08-25T08:55:31.178Z,21.39
2022-08-25T08:58:06.675Z,21.50
2022-08-25T09:00:51.920Z,21.60
2022-08-25T09:03:25.556Z,21.72
2022-08-25T09:06:01.533Z,21.77
2022-08-25T09:08:30.685Z,21.83
2022-08-25T09:11:10.126Z,21.91
2022-08-25T09:13:37.121Z,21.93
2022-08-25T09:16:35.617Z,22.00
2022-08-25T09:19:12.874Z,22.05
2022-08-25T09:21:51.222Z,22.03
2022-08-25T09:24:29.527Z,22.07
2022-08-25T09:27:11.416Z,22.08
2022-08-25T09:29:59.514Z,22.12
2022-08-25T09:32:34.917Z,22.15
2022-08-25T09:35:21.684Z,22.18
2022-08-25T09:38:17.707Z,22.24
2022-08-25T09:40:52.508Z,22.30
2022-08-25T09:43:37.223Z,22.43
2022-08-25T09:46:20.827Z,22.52
2022-08-25T09:49:10.847Z,22.62
2022-08-25T09:51:48.523Z,22.73
2022-08-25T09:54:25.471Z,22.73
2022-08-25T09:57:00.519Z,22.76
2022-08-25T09:59:36.439Z,22.81
2022-08-25T10:02:15.073Z,22.79
2022-08-25T10:04:44.872Z,22.78
2022-08-25T10:07:52.004Z,22.79
2022-08-25T10:10:24.572Z,22.82
2022-08-25T10:12:57.533Z,22.87
2022-08-25T10:15:29.877Z,22.95
2022-08-25T10:18:23.502Z,23.04
2022-08-25T10:21:11.308Z,23.18
2022-08-25T10:24:05.519Z,23.31
2022-08-25T10:26:41.416Z,23.39
2022-08-25T10:29:33.519Z,23.51
2022-08-25T10:32:18.491Z,23.76
2022-08-25T10:34:56.061Z,23.92
2022-08-25T10:37:35.539Z,23.97
2022-08-25T10:40:21.950Z,23.97
2022-08-25T10:43:04.745Z,23.94
2022-08-25T10:45:45.218Z,23.93
2022-08-25T10:48:37.511Z,23.94
2022-08-25T10:51:22.541Z,23.99
2022-08-25T10:53:59.496Z,24.01
2022-08-25T10:56:41.749Z,24.03
2022-08-25T10:59:17.512Z,24.10
2022-08-25T11:01:56.532Z,24.13
2022-08-25T11:04:34.495Z,24.23
2022-08-25T11:07:11.939Z,24.23
2022-08-25T11:09:47.479Z,24.33
2022-08-25T11:12:36.170Z,24.50
2022-08-25T11:15:31.236Z,24.62
2022-08-25T11:18:00.963Z,24.67
2022-08-25T11:20:40.491Z,24.71
2022-08-25T11:23:11.551Z,24.77
2022-08-25T11:25:52.480Z,24.84
2022-08-25T11:28:35.523Z,24.89
2022-08-25T11:31:09.851Z,24.95
2022-08-25T11:33:39.373Z,24.89
2022-08-25T11:36:33.487Z,24.93
2022-08-25T11:39:22.474Z,24.95
2022-08-25T11:42:12.448Z,24.95
2022-08-25T11:44:53.169Z,24.94
2022-08-25T11:47:42.603Z,24.96
2022-08-25T11:50:35.497Z,25.05
2022-08-25T11:53:18.243Z,25.15
2022-08-25T11:55:58.519Z,25.43
2022-08-25T11:58:34.490Z,25.49
2022-08-25T12:01:02.849Z,25.46
2022-08-25T12:03:38.484Z,25.54
2022-08-25T12:06:20.090Z,25.69
2022-08-25T12:08:57.698Z,26.14
2022-08-25T12:11:43.136Z,26.34
2022-08-25T12:14:28.633Z,26.61
2022-08-25T12:16:55.382Z,26.89
2022-08-25T12:19:40.475Z,27.29
2022-08-25T12:22:08.828Z,27.47
2022-08-25T12:24:51.479Z,27.75
2022-08-25T12:27:40.160Z,27.73
2022-08-25T12:30:24.475Z,27.48
2022-08-25T12:33:14.778Z,27.15
2022-08-25T12:36:08.487Z,26.89
2022-08-25T12:38:56.478Z,26.75
2022-08-25T12:41:24.532Z,26.55
2022-08-25T12:43:59.475Z,26.45
2022-08-25T12:46:37.642Z,26.31
2022-08-25T12:49:30.483Z,26.18
2022-08-25T12:52:04.858Z,26.06
2022-08-25T12:54:58.654Z,26.03
2022-08-25T12:57:40.735Z,25.94
2022-08-25T13:00:30.494Z,25.89
2022-08-25T13:03:29.540Z,25.78
2022-08-25T13:06:02.508Z,25.83
2022-08-25T13:08:46.808Z,25.78
2022-08-25T13:11:25.522Z,25.84
2022-08-25T13:14:05.406Z,25.89
2022-08-25T13:16:40.479Z,25.86
2022-08-25T13:19:07.387Z,25.89
2022-08-25T13:21:42.470Z,26.03
2022-08-25T13:24:12.540Z,26.66
2022-08-25T13:26:48.459Z,27.10
2022-08-25T13:29:29.655Z,27.62
2022-08-25T13:32:12.860Z,28.25
2022-08-25T13:34:54.500Z,28.10
2022-08-25T13:37:36.476Z,28.23
2022-08-25T13:40:18.728Z,28.49
2022-08-25T13:42:57.568Z,28.61
2022-08-25T13:45:40.248Z,28.60
2022-08-25T13:48:22.619Z,28.68
2022-08-25T13:50:58.536Z,28.75
2022-08-25T13:53:32.494Z,28.90
2022-08-25T13:56:07.621Z,29.09
2022-08-25T13:58:44.380Z,29.31
2022-08-25T14:01:48.704Z,29.46
2022-08-25T14:04:21.420Z,29.41
2022-08-25T14:06:55.550Z,29.66
2022-08-25T14:09:28.145Z,29.79
2022-08-25T14:12:03.561Z,29.93
2022-08-25T14:14:32.658Z,29.96
2022-08-25T14:17:04.961Z,29.98
2022-08-25T14:19:52.522Z,30.03
2022-08-25T14:22:25.706Z,30.02
2022-08-25T14:24:53.550Z,29.98
2022-08-25T14:27:27.520Z,29.89
2022-08-25T14:30:00.598Z,29.95
2022-08-25T14:32:33.921Z,29.94
2022-08-25T14:35:13.517Z,30.00
2022-08-25T14:37:45.158Z,29.80
2022-08-25T14:40:28.913Z,29.78
2022-08-25T14:43:06.743Z,29.78
2022-08-25T14:45:38.075Z,29.76
2022-08-25T14:48:14.458Z,29.79
2022-08-25T14:50:48.553Z,29.86
2022-08-25T14:53:17.403Z,29.83
2022-08-25T14:55:44.411Z,29.78
2022-08-25T14:58:17.526Z,29.83
2022-08-25T15:00:53.008Z,29.85
2022-08-25T15:03:34.527Z,29.61
2022-08-25T15:06:02.414Z,29.25
2022-08-25T15:08:56.529Z,29.15
2022-08-25T15:11:23.345Z,29.22
2022-08-25T15:13:56.482Z,29.25
2022-08-25T15:16:33.884Z,29.27
2022-08-25T15:19:09.576Z,29.28
2022-08-25T15:21:37.064Z,29.39
2022-08-25T15:24:05.233Z,29.42
2022-08-25T15:26:39.604Z,29.42
2022-08-25T15:29:06.605Z,29.49
2022-08-25T15:31:39.556Z,29.42
2022-08-25T15:34:14.130Z,29.45
2022-08-25T15:36:50.869Z,29.35
2022-08-25T15:39:18.950Z,29.26
2022-08-25T15:41:55.500Z,29.05
2022-08-25T15:44:28.997Z,28.83
2022-08-25T15:47:02.549Z,28.56
2022-08-25T15:49:29.819Z,28.22
2022-08-25T15:55:46.009Z,27.81
2022-08-25T15:58:20.460Z,27.59
2022-08-25T16:00:56.262Z,27.41
2022-08-25T16:03:29.471Z,27.18
2022-08-25T16:05:56.096Z,27.04
2022-08-25T16:08:29.476Z,26.92
2022-08-25T16:11:03.484Z,26.80
2022-08-25T16:13:36.461Z,26.69
2022-08-25T16:16:09.589Z,26.57
2022-08-25T16:18:42.457Z,26.46
2022-08-25T16:21:12.418Z,26.30
2022-08-25T16:23:46.484Z,26.21
2022-08-25T16:26:15.899Z,26.11
2022-08-25T16:28:51.493Z,25.98
2022-08-25T16:31:18.723Z,25.89
2022-08-25T16:33:58.564Z,25.83
2022-08-25T16:36:32.799Z,25.74
2022-08-25T16:39:09.947Z,25.64
2022-08-25T16:41:37.389Z,25.54
2022-08-25T16:44:15.459Z,25.45
2022-08-25T16:46:44.377Z,25.34
2022-08-25T16:49:19.473Z,25.30
2022-08-25T16:51:47.766Z,25.24
2022-08-25T16:54:46.485Z,25.14
2022-08-25T16:57:20.446Z,25.10
2022-08-25T16:59:53.501Z,25.01
2022-08-25T17:02:21.767Z,24.96
2022-08-25T17:04:54.502Z,24.89
2022-08-25T17:07:23.815Z,24.84
2022-08-25T17:09:57.454Z,24.80
2022-08-25T17:12:27.180Z,24.72
2022-08-25T17:18:32.972Z,24.58
2022-08-25T17:21:07.562Z,24.52
2022-08-25T17:23:35.235Z,24.47
2022-08-25T17:26:14.205Z,24.43
2022-08-25T17:28:41.968Z,24.40
2022-08-25T17:31:15.498Z,24.34
2022-08-25T17:33:48.864Z,24.30
2022-08-25T17:36:27.231Z,24.22
2022-08-25T17:39:01.483Z,24.19
2022-08-25T17:41:28.137Z,24.17
2022-08-25T17:44:01.447Z,24.13
2022-08-25T17:46:35.594Z,24.10
2022-08-25T17:49:08.470Z,24.04
2022-08-25T17:51:35.086Z,24.01
2022-08-25T17:54:08.492Z,23.96
2022-08-25T17:56:36.332Z,23.94
2022-08-25T17:59:09.503Z,23.88
2022-08-25T18:01:45.545Z,23.83
2022-08-25T18:04:16.951Z,23.78
2022-08-25T18:06:50.473Z,23.72
2022-08-25T18:09:17.831Z,23.65
2022-08-25T18:11:51.471Z,23.60
2022-08-25T18:14:21.220Z,23.55
2022-08-25T18:17:01.164Z,23.49
2022-08-25T18:19:27.905Z,23.43
2022-08-25T18:21:54.537Z,23.38
2022-08-25T18:24:27.586Z,23.33
2022-08-25T18:26:54.197Z,23.28
2022-08-25T18:29:27.451Z,23.24
2022-08-25T18:32:01.513Z,23.20
2022-08-25T18:34:37.630Z,23.16
2022-08-25T18:37:29.472Z,23.10
2022-08-25T18:40:21.567Z,23.04
2022-08-25T18:42:48.841Z,23.01
2022-08-25T18:45:22.464Z,23.00
2022-08-25T18:48:03.530Z,22.98
2022-08-25T18:50:33.716Z,22.93
2022-08-25T18:53:01.914Z,22.91
2022-08-25T18:55:35.450Z,22.87
2022-08-25T18:58:03.228Z,22.86
2022-08-25T19:00:30.696Z,22.82
2022-08-25T19:03:05.504Z,22.77
2022-08-25T19:05:34.355Z,22.75
2022-08-25T19:08:08.538Z,22.73
2022-08-25T19:10:42.636Z,22.70
2022-08-25T19:13:09.684Z,22.68
2022-08-25T19:15:44.492Z,22.67
2022-08-25T19:18:12.785Z,22.61
2022-08-25T19:20:46.497Z,22.60
2022-08-25T19:23:13.349Z,22.59
2022-08-25T19:25:47.451Z,22.59
2022-08-25T19:28:20.466Z,22.60
2022-08-25T19:30:53.528Z,22.59
2022-08-25T19:33:31.377Z,22.55
2022-08-25T19:36:17.483Z,22.53
2022-08-25T19:38:44.506Z,22.51
2022-08-25T19:41:18.451Z,22.51
2022-08-25T19:43:55.072Z,22.50
2022-08-25T19:46:33.336Z,22.49
2022-08-25T19:49:08.153Z,22.46
2022-08-25T19:51:47.436Z,22.47
2022-08-25T19:54:20.483Z,22.45
2022-08-25T19:56:55.584Z,22.46
2022-08-25T19:59:42.592Z,22.46
2022-08-25T20:02:24.511Z,22.45
2022-08-25T20:04:59.458Z,22.44
2022-08-25T20:07:34.445Z,22.46
2022-08-25T20:10:02.208Z,22.43
2022-08-25T20:12:35.438Z,22.43
2022-08-25T20:15:02.357Z,22.44
2022-08-25T20:17:35.450Z,22.42
2022-08-25T20:20:04.708Z,22.40
2022-08-25T20:22:32.791Z,22.40
2022-08-25T20:25:13.375Z,22.39
2022-08-25T20:27:42.265Z,22.37
2022-08-25T20:30:21.607Z,22.33
2022-08-25T20:32:56.710Z,22.29
2022-08-25T20:35:36.446Z,22.27
2022-08-25T20:38:10.644Z,22.25
2022-08-25T20:40:46.438Z,22.25
2022-08-25T20:43:22.455Z,22.23
2022-08-25T20:45:49.334Z,22.23
2022-08-25T20:48:16.404Z,22.22
2022-08-25T20:50:57.220Z,22.23
2022-08-25T20:53:25.064Z,22.19
2022-08-25T20:55:58.450Z,22.19
2022-08-25T20:58:25.173Z,22.18
2022-08-25T21:00:59.473Z,22.13
2022-08-25T21:03:32.420Z,22.11
2022-08-25T21:06:06.425Z,22.09
2022-08-25T21:08:39.424Z,22.08
2022-08-25T21:11:15.097Z,22.05
2022-08-25T21:13:48.451Z,22.02
2022-08-25T21:16:17.933Z,21.98
2022-08-25T21:18:52.420Z,21.97
2022-08-25T21:21:25.447Z,21.95
2022-08-25T21:23:52.468Z,21.89
2022-08-25T21:26:30.440Z,21.88
2022-08-25T21:28:59.008Z,21.88
2022-08-25T21:31:33.413Z,21.84
2022-08-25T21:34:06.896Z,21.76
2022-08-25T21:36:41.448Z,21.77
2022-08-25T21:39:08.473Z,21.70
2022-08-25T21:41:35.678Z,21.72
2022-08-25T21:44:10.422Z,21.69
2022-08-25T21:46:37.375Z,21.67
2022-08-25T21:49:11.421Z,21.62
2022-08-25T21:51:59.298Z,21.60
2022-08-25T21:54:26.795Z,21.58
2022-08-25T21:57:12.428Z,21.57
2022-08-25T21:59:41.047Z,21.54
2022-08-25T22:02:19.317Z,21.52
2022-08-25T22:04:59.415Z,21.50
2022-08-25T22:07:26.750Z,21.53
2022-08-25T22:10:00.476Z,21.54
2022-08-25T22:12:33.425Z,21.50
2022-08-25T22:15:06.504Z,21.49
2022-08-25T22:17:33.514Z,21.47
2022-08-25T22:20:00.800Z,21.44
2022-08-25T22:22:33.396Z,21.32
2022-08-25T22:25:06.437Z,21.30
2022-08-25T22:27:34.808Z,21.27
2022-08-25T22:30:01.352Z,21.28
2022-08-25T22:32:35.423Z,21.30
2022-08-25T22:35:15.425Z,21.24
2022-08-25T22:37:46.989Z,21.21
2022-08-25T22:40:13.879Z,21.20
2022-08-25T22:42:49.407Z,21.21
2022-08-25T22:45:23.426Z,21.19
2022-08-25T22:47:52.231Z,21.14
2022-08-25T22:50:26.409Z,21.07
2022-08-25T22:52:53.080Z,21.10
2022-08-25T22:55:28.109Z,21.07
2022-08-25T22:57:54.933Z,21.02
2022-08-25T23:00:28.429Z,21.00
2022-08-25T23:02:55.155Z,20.96
2022-08-25T23:05:23.026Z,20.95
2022-08-25T23:07:57.428Z,20.97
2022-08-25T23:10:25.540Z,20.94
2022-08-25T23:12:59.426Z,20.93
2022-08-25T23:15:26.024Z,20.96
2022-08-25T23:17:59.429Z,20.95
2022-08-25T23:20:45.726Z,20.92
2022-08-25T23:23:19.410Z,20.96
2022-08-25T23:25:45.966Z,20.84
2022-08-25T23:28:19.432Z,20.93
2022-08-25T23:30:54.537Z,20.90
2022-08-25T23:33:37.436Z,20.81
2022-08-25T23:36:13.486Z,20.84
2022-08-25T23:38:51.656Z,20.81
2022-08-25T23:41:20.635Z,20.81
2022-08-25T23:43:54.422Z,20.82
2022-08-25T23:46:22.742Z,20.82
2022-08-25T23:48:57.418Z,20.79
2022-08-25T23:51:27.580Z,20.78
2022-08-25T23:54:02.399Z,20.64
2022-08-25T23:56:29.039Z,20.59
2022-08-25T23:59:03.459Z,20.51
